Time;durP1;ratioP1;P1;durP2;ratioP2;P2;SDS_P1;SDS_P2;PMS_P1;PMS_P2;Temp;Humidity;BMP_temperature;BMP_pressure;BME280_temperature;BME280_humidity;BME280_pressure;Samples;Min_cycle;Max_cycle;Signal;HPM_P1;HPM_P2
2023/04/08 00:00:06;;;;;;;10.07;6.95;;;6.70;99.90;;;;;;5067813;28;20127;-64
2023/04/08 00:02:32;;;;;;;9.32;6.80;;;6.70;99.90;;;;;;5058562;28;20090;-64
2023/04/08 00:04:58;;;;;;;11.65;7.03;;;6.80;99.90;;;;;;5055663;28;20041;-64
2023/04/08 00:07:23;;;;;;;10.18;6.90;;;6.80;99.90;;;;;;5064179;28;20049;-64
2023/04/08 00:09:49;;;;;;;12.55;7.32;;;6.80;99.90;;;;;;5055072;28;20140;-64
2023/04/08 00:12:14;;;;;;;10.27;6.97;;;6.70;99.90;;;;;;5051161;28;20036;-63
2023/04/08 00:14:40;;;;;;;9.57;7.05;;;6.70;99.90;;;;;;5056815;28;20479;-64
2023/04/08 00:17:06;;;;;;;9.98;6.78;;;6.60;99.90;;;;;;5056190;28;20447;-64
2023/04/08 00:19:32;;;;;;;11.57;7.22;;;6.60;99.90;;;;;;5066243;28;20095;-64
2023/04/08 00:21:58;;;;;;;10.10;7.25;;;6.50;99.90;;;;;;5062155;28;20041;-64
2023/04/08 00:24:24;;;;;;;10.20;7.03;;;6.50;99.90;;;;;;5072970;28;20043;-64
2023/04/08 00:26:50;;;;;;;11.40;6.72;;;6.50;99.90;;;;;;5063903;28;20045;-64
2023/04/08 00:29:16;;;;;;;11.60;7.43;;;6.40;99.90;;;;;;5066189;28;20503;-64
2023/04/08 00:31:41;;;;;;;12.32;7.60;;;6.40;99.90;;;;;;5068479;28;20036;-64
2023/04/08 00:34:07;;;;;;;10.35;6.57;;;6.40;99.90;;;;;;5066317;28;20036;-64
2023/04/08 00:36:34;;;;;;;10.45;6.65;;;6.40;99.90;;;;;;5064159;28;20123;-64
2023/04/08 00:39:00;;;;;;;10.38;6.85;;;6.30;99.90;;;;;;5069439;28;20609;-64
2023/04/08 00:41:26;;;;;;;9.15;7.10;;;6.30;99.90;;;;;;5070973;28;20039;-64
2023/04/08 00:43:52;;;;;;;10.02;6.65;;;6.30;99.90;;;;;;5067232;28;20189;-64
2023/04/08 00:46:18;;;;;;;11.77;7.25;;;6.30;99.90;;;;;;5064243;28;20041;-64
2023/04/08 00:48:44;;;;;;;9.98;6.93;;;6.20;99.90;;;;;;5063625;28;20052;-64
2023/04/08 00:51:10;;;;;;;9.82;6.68;;;6.20;99.90;;;;;;5064570;28;20067;-64
2023/04/08 00:53:35;;;;;;;14.00;7.63;;;6.20;99.90;;;;;;5069898;28;20060;-64
2023/04/08 00:56:01;;;;;;;10.55;7.28;;;6.20;99.90;;;;;;5068617;28;20512;-64
2023/04/08 00:58:28;;;;;;;10.10;7.20;;;6.10;99.90;;;;;;5076833;28;20086;-64
2023/04/08 01:01:07;;;;;;;10.75;7.35;;;6.10;99.90;;;;;;5067732;28;20207;-64
2023/04/08 01:03:43;;;;;;;10.63;7.65;;;6.10;99.90;;;;;;5058035;28;20542;-64
2023/04/08 01:06:47;;;;;;;11.85;7.50;;;6.00;99.90;;;;;;5061840;28;20064;-64
2023/04/08 01:09:19;;;;;;;11.45;7.70;;;6.00;99.90;;;;;;5061815;28;20036;-65
2023/04/08 01:11:49;;;;;;;13.85;7.63;;;5.90;99.90;;;;;;5051736;28;20053;-64
2023/04/08 01:14:19;;;;;;;11.70;7.43;;;5.80;99.90;;;;;;5048522;28;20045;-63
2023/04/08 01:16:46;;;;;;;12.18;7.82;;;5.80;99.90;;;;;;5054452;28;20052;-63
2023/04/08 01:19:25;;;;;;;12.65;7.72;;;5.80;99.90;;;;;;5051803;28;20053;-64
2023/04/08 01:21:52;;;;;;;11.68;7.35;;;5.80;99.90;;;;;;5059234;28;20045;-64
2023/04/08 01:24:29;;;;;;;11.55;7.05;;;5.70;99.90;;;;;;5055832;28;20051;-64
2023/04/08 01:26:57;;;;;;;13.07;7.68;;;5.70;99.90;;;;;;5054056;28;20048;-64
2023/04/08 01:29:25;;;;;;;11.13;7.60;;;5.70;99.90;;;;;;5056954;28;20063;-63
2023/04/08 01:31:54;;;;;;;11.07;7.13;;;5.70;99.90;;;;;;5062872;28;20033;-63
2023/04/08 01:34:20;;;;;;;12.77;7.93;;;5.60;99.90;;;;;;5059950;28;20051;-63
2023/04/08 01:36:48;;;;;;;11.73;7.40;;;5.60;99.90;;;;;;5053344;28;20132;-63
2023/04/08 01:39:16;;;;;;;10.90;7.15;;;5.50;99.90;;;;;;5059794;28;20041;-64
2023/04/08 01:41:42;;;;;;;10.60;7.65;;;5.50;99.90;;;;;;5053047;28;20122;-64
2023/04/08 01:44:10;;;;;;;13.48;7.32;;;5.50;99.90;;;;;;5062886;28;20045;-63
2023/04/08 01:46:37;;;;;;;12.15;7.57;;;5.50;99.90;;;;;;5052412;28;20048;-64
2023/04/08 01:49:05;;;;;;;9.57;6.78;;;5.50;99.90;;;;;;5061203;28;20181;-64
2023/04/08 01:51:31;;;;;;;10.65;6.70;;;5.40;99.90;;;;;;5054350;28;20072;-64
2023/04/08 01:53:57;;;;;;;11.00;7.03;;;5.40;99.90;;;;;;5066034;28;20048;-64
2023/04/08 01:56:27;;;;;;;10.63;7.15;;;5.40;99.90;;;;;;5054142;28;20476;-64
2023/04/08 01:58:54;;;;;;;14.00;7.65;;;5.30;99.90;;;;;;5063378;28;20136;-64
2023/04/08 02:01:24;;;;;;;11.63;7.32;;;5.30;99.90;;;;;;5056147;28;20130;-64
2023/04/08 02:03:51;;;;;;;10.75;7.05;;;5.30;99.90;;;;;;5055468;28;20090;-64
2023/04/08 02:06:17;;;;;;;10.82;7.40;;;5.30;99.90;;;;;;5063521;28;20163;-64
2023/04/08 02:08:42;;;;;;;11.68;7.85;;;5.30;99.90;;;;;;5055564;28;20051;-64
2023/04/08 02:11:09;;;;;;;11.02;6.95;;;5.20;99.90;;;;;;5067605;28;20131;-64
2023/04/08 02:13:34;;;;;;;11.93;6.82;;;5.20;99.90;;;;;;5067591;28;20041;-64
2023/04/08 02:16:15;;;;;;;11.25;7.60;;;5.10;99.90;;;;;;5065660;28;20410;-63
2023/04/08 02:18:44;;;;;;;10.32;7.57;;;5.10;99.90;;;;;;5045057;28;20345;-64
2023/04/08 02:21:15;;;;;;;12.32;7.78;;;5.00;99.90;;;;;;5046911;28;20487;-64
2023/04/08 02:23:43;;;;;;;11.50;7.32;;;5.00;99.90;;;;;;5065997;28;20041;-64
2023/04/08 02:26:13;;;;;;;12.80;7.00;;;5.00;99.90;;;;;;5059817;28;20532;-64
2023/04/08 02:28:43;;;;;;;11.13;7.13;;;4.90;99.90;;;;;;5065761;28;20064;-63
2023/04/08 02:31:14;;;;;;;12.20;7.50;;;4.90;99.90;;;;;;5067693;28;20056;-64
2023/04/08 02:33:41;;;;;;;12.35;7.45;;;4.90;99.90;;;;;;5065518;28;20041;-63
2023/04/08 02:36:07;;;;;;;10.73;6.97;;;4.80;99.90;;;;;;5059015;28;20044;-63
2023/04/08 02:38:33;;;;;;;12.68;7.50;;;4.80;99.90;;;;;;5056007;28;20067;-63
2023/04/08 02:40:58;;;;;;;11.80;7.18;;;4.90;99.90;;;;;;5064792;28;20091;-63
2023/04/08 02:43:31;;;;;;;12.05;7.25;;;4.90;99.90;;;;;;5055598;28;20073;-63
2023/04/08 02:45:59;;;;;;;10.57;7.20;;;4.90;99.90;;;;;;5052504;28;20055;-63
2023/04/08 02:48:25;;;;;;;11.90;7.30;;;4.90;99.90;;;;;;5065117;28;20423;-63
2023/04/08 02:50:50;;;;;;;11.70;7.25;;;4.90;99.90;;;;;;5065940;28;20131;-63
2023/04/08 02:53:16;;;;;;;11.82;7.22;;;4.90;99.90;;;;;;5067496;28;20140;-64
2023/04/08 02:55:41;;;;;;;12.18;7.28;;;4.80;99.90;;;;;;5064357;28;20067;-64
2023/04/08 02:58:07;;;;;;;10.88;7.75;;;4.80;99.90;;;;;;5067806;28;20467;-64
2023/04/08 03:00:33;;;;;;;13.35;7.97;;;4.80;99.90;;;;;;5062155;28;20091;-63
2023/04/08 03:02:58;;;;;;;14.10;7.85;;;4.80;99.90;;;;;;5065101;28;20068;-64
2023/04/08 03:05:25;;;;;;;14.00;7.75;;;4.70;99.90;;;;;;5063905;28;20056;-64
2023/04/08 03:07:51;;;;;;;12.13;8.02;;;4.70;99.90;;;;;;5055664;28;20045;-64
2023/04/08 03:10:16;;;;;;;11.25;7.63;;;4.70;99.90;;;;;;5065631;28;20046;-64
2023/04/08 03:12:42;;;;;;;12.85;7.97;;;4.70;99.90;;;;;;5064800;28;20033;-64
2023/04/08 03:15:08;;;;;;;11.30;7.55;;;4.60;99.90;;;;;;5061076;28;20045;-64
2023/04/08 03:17:33;;;;;;;15.45;8.48;;;4.60;99.90;;;;;;5060291;28;20456;-64
2023/04/08 03:20:00;;;;;;;12.40;7.97;;;4.60;99.90;;;;;;5065400;28;20049;-64
2023/04/08 03:22:25;;;;;;;15.57;8.20;;;4.50;99.90;;;;;;5058017;28;20067;-64
2023/04/08 03:24:51;;;;;;;14.32;8.43;;;4.50;99.90;;;;;;5070394;28;20099;-64
2023/04/08 03:27:17;;;;;;;12.02;7.85;;;4.50;99.90;;;;;;5057471;28;20048;-64
2023/04/08 03:29:44;;;;;;;13.10;8.55;;;4.50;99.90;;;;;;5064400;28;20486;-64
2023/04/08 03:32:10;;;;;;;14.82;8.82;;;4.50;99.90;;;;;;5059931;28;20048;-64
2023/04/08 03:34:35;;;;;;;14.60;8.85;;;4.50;99.90;;;;;;5060601;28;20358;-64
2023/04/08 03:37:01;;;;;;;13.88;9.25;;;4.40;99.90;;;;;;5062355;28;20456;-64
2023/04/08 03:39:27;;;;;;;14.32;8.88;;;4.40;99.90;;;;;;5063113;28;20047;-64
2023/04/08 03:41:52;;;;;;;14.65;9.75;;;4.40;99.90;;;;;;5059839;28;20075;-64
2023/04/08 03:44:18;;;;;;;15.02;10.13;;;4.40;99.90;;;;;;5066545;28;20075;-64
2023/04/08 03:46:43;;;;;;;14.75;9.57;;;4.30;99.90;;;;;;5064659;28;20055;-63
2023/04/08 03:49:09;;;;;;;15.88;9.77;;;4.20;99.90;;;;;;5053431;28;20068;-64
2023/04/08 03:51:34;;;;;;;13.65;8.70;;;4.20;99.90;;;;;;5051836;28;20128;-64
2023/04/08 03:54:00;;;;;;;17.83;10.05;;;4.20;99.90;;;;;;5060463;28;20538;-63
2023/04/08 03:56:26;;;;;;;12.52;8.75;;;4.20;99.90;;;;;;5056970;28;20056;-64
2023/04/08 03:58:52;;;;;;;14.05;9.57;;;4.20;99.90;;;;;;5061277;28;20055;-64
2023/04/08 04:01:17;;;;;;;13.95;9.57;;;4.20;99.90;;;;;;5060603;28;20432;-64
2023/04/08 04:03:43;;;;;;;13.27;8.77;;;4.20;99.90;;;;;;5066670;28;20563;-64
2023/04/08 04:06:09;;;;;;;14.07;9.32;;;4.10;99.90;;;;;;5058767;28;20391;-64
2023/04/08 04:08:34;;;;;;;14.50;9.98;;;4.00;99.90;;;;;;5065028;28;20064;-64
2023/04/08 04:11:00;;;;;;;13.90;9.40;;;3.90;99.90;;;;;;5062701;28;20048;-64
2023/04/08 04:13:26;;;;;;;14.18;9.13;;;3.90;99.90;;;;;;5068647;28;20041;-64
2023/04/08 04:15:51;;;;;;;14.75;9.73;;;3.90;99.90;;;;;;5063314;28;20136;-63
2023/04/08 04:18:17;;;;;;;14.52;9.52;;;3.90;99.90;;;;;;5055633;28;20039;-64
2023/04/08 04:20:42;;;;;;;14.38;9.98;;;4.00;99.90;;;;;;5059499;28;20045;-63
2023/04/08 04:23:08;;;;;;;16.08;10.00;;;4.00;99.90;;;;;;5060419;28;20063;-63
2023/04/08 04:25:34;;;;;;;15.25;10.38;;;4.00;99.90;;;;;;5060274;28;20035;-64
2023/04/08 04:28:00;;;;;;;13.65;8.85;;;4.00;99.90;;;;;;5066459;28;21273;-63
2023/04/08 04:30:26;;;;;;;14.68;9.45;;;4.00;99.90;;;;;;5057346;28;20049;-63
2023/04/08 04:32:52;;;;;;;16.08;10.18;;;4.00;99.90;;;;;;5062323;28;20569;-64
2023/04/08 04:35:17;;;;;;;15.15;9.85;;;3.90;99.90;;;;;;5080677;28;20071;-63
2023/04/08 04:37:43;;;;;;;14.75;9.73;;;3.80;99.90;;;;;;5073116;28;20041;-63
2023/04/08 04:40:09;;;;;;;17.17;11.18;;;3.90;99.90;;;;;;5061645;28;20085;-63
2023/04/08 04:42:35;;;;;;;17.20;10.73;;;3.80;99.90;;;;;;5063809;28;20141;-64
2023/04/08 04:45:00;;;;;;;17.55;11.15;;;3.80;99.90;;;;;;5061268;28;20127;-63
2023/04/08 04:47:26;;;;;;;15.63;10.27;;;3.70;99.90;;;;;;5067922;28;20182;-63
2023/04/08 04:49:52;;;;;;;18.02;11.23;;;3.70;99.90;;;;;;5066482;28;20151;-64
2023/04/08 04:52:18;;;;;;;17.17;11.52;;;3.80;99.90;;;;;;5066112;28;20109;-63
2023/04/08 04:54:43;;;;;;;18.05;11.90;;;3.70;99.90;;;;;;5061462;28;20483;-64
2023/04/08 04:57:10;;;;;;;17.50;11.55;;;3.70;99.90;;;;;;5060747;28;20487;-64
2023/04/08 04:59:36;;;;;;;17.60;11.43;;;3.70;99.90;;;;;;5064518;28;20099;-64
2023/04/08 05:02:02;;;;;;;16.23;10.93;;;3.80;99.90;;;;;;5052980;28;20151;-64
2023/04/08 05:04:27;;;;;;;18.10;11.57;;;3.80;99.90;;;;;;5058458;28;20052;-64
2023/04/08 05:06:53;;;;;;;17.38;11.00;;;3.80;99.90;;;;;;5062317;28;20063;-64
2023/04/08 05:09:18;;;;;;;17.65;11.13;;;3.70;99.90;;;;;;5060473;28;20453;-63
2023/04/08 05:11:44;;;;;;;17.70;11.30;;;3.70;99.90;;;;;;5069573;28;20040;-64
2023/04/08 05:14:10;;;;;;;19.17;12.00;;;3.70;99.90;;;;;;5076591;28;20056;-64
2023/04/08 05:16:35;;;;;;;18.25;11.93;;;3.70;99.90;;;;;;5065726;28;20047;-64
2023/04/08 05:19:01;;;;;;;22.27;13.60;;;3.70;99.90;;;;;;5066108;28;20037;-63
2023/04/08 05:21:26;;;;;;;22.55;13.48;;;3.60;99.90;;;;;;5059981;28;20566;-64
2023/04/08 05:23:53;;;;;;;19.13;12.82;;;3.60;99.90;;;;;;5063399;28;20134;-64
2023/04/08 05:26:20;;;;;;;20.63;12.57;;;3.60;99.90;;;;;;5067409;28;20041;-63
2023/04/08 05:28:46;;;;;;;21.23;13.15;;;3.70;99.90;;;;;;5065250;28;20045;-63
2023/04/08 05:31:15;;;;;;;18.42;12.57;;;3.70;99.90;;;;;;5068659;28;20051;-64
2023/04/08 05:33:40;;;;;;;20.80;13.95;;;3.70;99.90;;;;;;5065176;28;20060;-63
2023/04/08 05:36:06;;;;;;;20.48;13.63;;;3.80;99.90;;;;;;5060129;28;20037;-64
2023/04/08 05:38:32;;;;;;;21.10;13.55;;;3.80;99.90;;;;;;5055244;28;20059;-64
2023/04/08 05:40:57;;;;;;;19.00;13.32;;;3.90;99.90;;;;;;5059144;28;20704;-64
2023/04/08 05:43:23;;;;;;;21.23;14.00;;;3.90;99.90;;;;;;5058317;28;20140;-64
2023/04/08 05:45:49;;;;;;;23.27;14.30;;;3.90;99.90;;;;;;5064023;28;20044;-63
2023/04/08 05:48:14;;;;;;;20.52;14.25;;;3.90;99.90;;;;;;5060628;28;20051;-63
2023/04/08 05:50:40;;;;;;;20.70;14.15;;;4.00;99.90;;;;;;5059151;28;20041;-63
2023/04/08 05:53:06;;;;;;;20.38;14.13;;;4.00;99.90;;;;;;5065986;28;20092;-64
2023/04/08 05:55:31;;;;;;;20.60;14.35;;;4.00;99.90;;;;;;5064746;28;20411;-64
2023/04/08 05:57:57;;;;;;;21.00;14.38;;;4.00;99.90;;;;;;5062795;28;20123;-63
2023/04/08 06:00:22;;;;;;;21.98;14.27;;;4.00;99.90;;;;;;5072805;28;20076;-64
2023/04/08 06:02:48;;;;;;;22.27;14.70;;;4.00;99.90;;;;;;5065166;28;20041;-63
2023/04/08 06:05:13;;;;;;;23.02;14.73;;;4.20;99.90;;;;;;5068786;28;20161;-63
2023/04/08 06:07:39;;;;;;;20.05;14.13;;;4.20;99.90;;;;;;5065448;28;20097;-63
2023/04/08 06:10:06;;;;;;;21.55;14.48;;;4.30;99.90;;;;;;5062067;28;20056;-63
2023/04/08 06:12:35;;;;;;;20.65;14.20;;;4.40;99.90;;;;;;5077521;28;20052;-63
2023/04/08 06:15:01;;;;;;;23.05;15.10;;;4.40;99.90;;;;;;5073548;28;20045;-63
2023/04/08 06:17:26;;;;;;;23.00;15.40;;;4.50;99.90;;;;;;5077709;28;20055;-63
2023/04/08 06:19:52;;;;;;;24.20;15.77;;;4.60;99.90;;;;;;5065561;28;20159;-64
2023/04/08 06:22:17;;;;;;;25.90;15.68;;;4.70;99.90;;;;;;5071112;28;20041;-64
2023/04/08 06:24:43;;;;;;;23.23;14.88;;;4.70;99.90;;;;;;5070137;28;20035;-63
2023/04/08 06:27:09;;;;;;;25.95;15.35;;;4.80;99.90;;;;;;5067865;28;20039;-63
2023/04/08 06:29:34;;;;;;;21.77;14.57;;;4.70;99.90;;;;;;5069013;28;20041;-63
2023/04/08 06:32:00;;;;;;;23.15;15.45;;;4.70;99.90;;;;;;5062487;28;20098;-63
2023/04/08 06:34:25;;;;;;;24.85;15.52;;;4.70;99.90;;;;;;5063878;28;20437;-63
2023/04/08 06:36:51;;;;;;;24.75;16.00;;;4.70;99.90;;;;;;5061449;28;20047;-63
2023/04/08 06:39:18;;;;;;;26.77;17.02;;;4.70;99.90;;;;;;5071980;28;20120;-63
2023/04/08 06:41:43;;;;;;;23.55;15.82;;;4.80;99.90;;;;;;5070854;28;20044;-63
2023/04/08 06:44:09;;;;;;;27.80;16.90;;;4.80;99.90;;;;;;5061475;28;20428;-64
2023/04/08 06:46:35;;;;;;;28.63;17.67;;;4.90;99.90;;;;;;5068430;28;20079;-61
2023/04/08 06:49:00;;;;;;;27.02;17.30;;;5.00;99.90;;;;;;5063650;28;20112;-62
2023/04/08 06:51:26;;;;;;;25.10;17.25;;;5.10;99.90;;;;;;5060466;28;20033;-63
2023/04/08 06:53:52;;;;;;;27.30;17.10;;;5.10;99.90;;;;;;5071135;28;20174;-63
2023/04/08 06:56:19;;;;;;;28.38;17.92;;;5.20;99.90;;;;;;5074191;28;20055;-62
2023/04/08 06:58:44;;;;;;;25.75;17.30;;;5.30;99.90;;;;;;5059964;28;20101;-62
2023/04/08 07:01:10;;;;;;;26.13;16.75;;;5.40;99.90;;;;;;5069451;28;20073;-62
2023/04/08 07:03:36;;;;;;;25.83;17.23;;;5.40;99.90;;;;;;5065309;28;20152;-63
2023/04/08 07:06:04;;;;;;;29.10;19.50;;;5.50;99.90;;;;;;5067215;28;20045;-63
2023/04/08 07:08:30;;;;;;;26.20;17.63;;;5.70;99.90;;;;;;5069014;28;20422;-64
2023/04/08 07:10:56;;;;;;;26.63;17.77;;;5.70;99.90;;;;;;5071789;28;20036;-62
2023/04/08 07:13:22;;;;;;;33.78;18.98;;;5.80;99.90;;;;;;5065989;28;20360;-63
2023/04/08 07:15:47;;;;;;;30.05;19.35;;;5.90;99.90;;;;;;5071189;28;20085;-63
2023/04/08 07:18:13;;;;;;;28.00;18.23;;;6.00;99.90;;;;;;5069695;28;20040;-62
2023/04/08 07:20:40;;;;;;;30.15;18.50;;;6.00;99.90;;;;;;5067023;28;20047;-63
2023/04/08 07:23:06;;;;;;;28.90;19.65;;;6.10;99.90;;;;;;5068733;28;20060;-63
2023/04/08 07:25:34;;;;;;;26.58;18.23;;;6.20;99.90;;;;;;5071139;28;20158;-63
2023/04/08 07:27:59;;;;;;;29.00;18.92;;;6.30;99.90;;;;;;5057685;28;20464;-62
2023/04/08 07:30:25;;;;;;;31.17;19.10;;;6.40;99.90;;;;;;5071395;28;20052;-63
2023/04/08 07:32:54;;;;;;;29.48;19.50;;;6.50;99.90;;;;;;5061742;28;20090;-64
2023/04/08 07:35:23;;;;;;;29.33;19.23;;;6.50;99.90;;;;;;5062842;28;20129;-64
2023/04/08 07:37:50;;;;;;;29.58;19.50;;;6.50;99.90;;;;;;5059297;28;20136;-64
2023/04/08 07:40:16;;;;;;;30.05;18.95;;;6.60;99.90;;;;;;5067264;28;20081;-64
2023/04/08 07:42:41;;;;;;;28.02;18.98;;;6.60;99.90;;;;;;5060258;28;20039;-63
2023/04/08 07:45:07;;;;;;;30.95;19.77;;;6.70;99.90;;;;;;5061718;28;20367;-63
2023/04/08 07:47:33;;;;;;;30.35;20.30;;;6.70;99.90;;;;;;5063431;28;20143;-63
2023/04/08 07:49:59;;;;;;;31.80;19.60;;;6.70;99.90;;;;;;5066159;28;20108;-62
2023/04/08 07:52:25;;;;;;;28.85;19.13;;;6.80;99.90;;;;;;5061461;28;20181;-63
2023/04/08 07:54:50;;;;;;;30.98;19.98;;;6.80;99.90;;;;;;5067362;28;20041;-63
2023/04/08 07:57:16;;;;;;;31.80;19.83;;;6.90;99.90;;;;;;5066305;28;20439;-64
2023/04/08 07:59:41;;;;;;;30.10;20.05;;;6.90;99.90;;;;;;5064451;28;20121;-64
2023/04/08 08:02:07;;;;;;;31.55;19.83;;;7.00;99.90;;;;;;5063697;28;20444;-63
2023/04/08 08:04:33;;;;;;;31.15;19.17;;;7.00;99.90;;;;;;5067829;28;20173;-63
2023/04/08 08:06:58;;;;;;;27.67;18.65;;;7.10;99.90;;;;;;5061130;28;20138;-62
2023/04/08 08:09:24;;;;;;;28.48;18.65;;;7.20;99.90;;;;;;5058364;28;20044;-63
2023/04/08 08:11:50;;;;;;;30.25;19.13;;;7.30;99.90;;;;;;5067142;28;20583;-64
2023/04/08 08:14:15;;;;;;;29.85;19.90;;;7.40;99.90;;;;;;5063966;28;20037;-63
2023/04/08 08:16:41;;;;;;;30.80;19.15;;;7.50;99.90;;;;;;5061892;28;20467;-63
2023/04/08 08:19:07;;;;;;;29.60;19.33;;;7.70;99.90;;;;;;5068391;28;20097;-64
2023/04/08 08:21:36;;;;;;;27.63;18.33;;;7.80;99.90;;;;;;5064148;28;20048;-64
2023/04/08 08:24:01;;;;;;;27.40;19.58;;;8.00;99.90;;;;;;5069457;28;20115;-65
2023/04/08 08:26:27;;;;;;;27.48;19.35;;;8.00;99.90;;;;;;5070049;28;20139;-65
2023/04/08 08:28:53;;;;;;;28.85;18.65;;;8.20;99.90;;;;;;5064448;28;20510;-64
2023/04/08 08:31:19;;;;;;;27.70;18.83;;;8.40;99.90;;;;;;5062409;28;20124;-63
2023/04/08 08:33:45;;;;;;;27.00;18.85;;;8.50;99.90;;;;;;5064603;28;20117;-62
2023/04/08 08:36:11;;;;;;;28.95;18.88;;;8.50;99.90;;;;;;5064656;28;20107;-63
2023/04/08 08:38:37;;;;;;;30.25;18.27;;;8.50;99.90;;;;;;5062542;28;20036;-65
2023/04/08 08:41:03;;;;;;;26.02;18.58;;;8.60;99.90;;;;;;5061947;28;20494;-65
2023/04/08 08:43:32;;;;;;;29.85;18.88;;;8.70;99.90;;;;;;5058498;28;20080;-67
2023/04/08 08:45:58;;;;;;;27.23;18.08;;;8.80;99.90;;;;;;5063813;28;20048;-64
2023/04/08 08:48:24;;;;;;;27.30;18.48;;;8.90;99.90;;;;;;5063512;28;20424;-65
2023/04/08 08:50:50;;;;;;;30.00;19.77;;;9.00;99.90;;;;;;5056095;28;20122;-65
2023/04/08 08:53:15;;;;;;;26.23;18.40;;;9.00;99.90;;;;;;5057687;28;20052;-65
2023/04/08 08:55:41;;;;;;;27.55;17.88;;;9.10;99.90;;;;;;5058887;28;20600;-67
2023/04/08 08:58:07;;;;;;;24.73;16.67;;;9.10;99.90;;;;;;5067506;28;20040;-67
2023/04/08 09:00:34;;;;;;;25.67;16.95;;;9.10;99.90;;;;;;5063748;28;20083;-65
2023/04/08 09:03:18;;;;;;;26.88;17.85;;;9.10;99.90;;;;;;5065353;28;20045;-65
2023/04/08 09:05:55;;;;;;;25.98;18.13;;;9.20;99.90;;;;;;5065569;28;20056;-63
2023/04/08 09:08:31;;;;;;;25.73;17.55;;;9.30;99.90;;;;;;5061428;28;20045;-64
2023/04/08 09:11:13;;;;;;;25.65;17.50;;;9.40;99.90;;;;;;5063391;28;20132;-64
2023/04/08 09:13:40;;;;;;;23.13;15.93;;;9.50;99.90;;;;;;5063400;28;20048;-63
2023/04/08 09:16:22;;;;;;;24.67;16.10;;;9.50;99.90;;;;;;5067939;28;20064;-64
2023/04/08 09:18:48;;;;;;;23.63;16.50;;;9.60;99.90;;;;;;5080676;28;20052;-64
2023/04/08 09:21:18;;;;;;;22.60;15.32;;;9.60;99.90;;;;;;5067901;28;20076;-63
2023/04/08 09:23:47;;;;;;;23.08;15.23;;;9.60;99.90;;;;;;5061011;28;20040;-63
2023/04/08 09:26:15;;;;;;;21.83;16.00;;;9.60;99.90;;;;;;5065046;28;20116;-64
2023/04/08 09:28:42;;;;;;;20.52;15.57;;;9.80;99.90;;;;;;5055705;28;20044;-64
2023/04/08 09:31:25;;;;;;;22.73;14.43;;;9.90;99.90;;;;;;5056059;28;20044;-63
2023/04/08 09:34:01;;;;;;;21.02;14.45;;;10.10;99.90;;;;;;5067253;28;20052;-63
2023/04/08 09:36:27;;;;;;;18.80;14.13;;;10.20;99.90;;;;;;5061555;28;20048;-63
2023/04/08 09:38:54;;;;;;;19.25;14.38;;;10.30;99.90;;;;;;5074227;28;20123;-63
2023/04/08 09:41:22;;;;;;;19.35;13.80;;;10.30;99.90;;;;;;5066140;28;20051;-63
2023/04/08 09:43:50;;;;;;;17.85;13.13;;;10.30;99.90;;;;;;5072640;28;20040;-63
2023/04/08 09:46:18;;;;;;;22.08;13.80;;;10.40;99.90;;;;;;5073346;28;20037;-63
2023/04/08 09:49:09;;;;;;;18.70;13.38;;;10.50;99.90;;;;;;5068620;28;20049;-61
2023/04/08 09:51:48;;;;;;;19.45;14.45;;;10.50;99.90;;;;;;5069765;28;20487;-63
2023/04/08 09:54:18;;;;;;;22.23;15.80;;;10.60;99.90;;;;;;5072340;28;20086;-63
2023/04/08 09:56:59;;;;;;;19.70;14.27;;;10.70;99.90;;;;;;5062840;28;20178;-63
2023/04/08 09:59:30;;;;;;;21.42;15.35;;;10.80;99.90;;;;;;5071690;28;20036;-63
2023/04/08 10:02:00;;;;;;;21.15;14.70;;;10.90;99.90;;;;;;5068208;28;20104;-63
2023/04/08 10:04:28;;;;;;;19.80;14.68;;;10.80;99.90;;;;;;5062218;28;20379;-63
2023/04/08 10:06:59;;;;;;;20.67;14.73;;;10.80;99.90;;;;;;5060515;28;20041;-63
2023/04/08 10:09:26;;;;;;;21.48;15.55;;;10.90;99.90;;;;;;5068602;28;20044;-64
2023/04/08 10:11:52;;;;;;;22.45;15.75;;;11.00;99.90;;;;;;5059335;28;20044;-64
2023/04/08 10:14:20;;;;;;;19.88;14.55;;;11.00;99.90;;;;;;5059449;28;20788;-62
2023/04/08 10:16:46;;;;;;;19.80;15.02;;;11.00;99.90;;;;;;5071745;28;20076;-62
2023/04/08 10:19:38;;;;;;;21.73;14.70;;;11.00;99.90;;;;;;5073155;28;20079;-62
2023/04/08 10:22:23;;;;;;;19.65;14.55;;;11.00;99.90;;;;;;5067140;28;20128;-62
2023/04/08 10:25:14;;;;;;;19.00;14.15;;;11.00;99.90;;;;;;5061481;28;20147;-66
2023/04/08 10:27:42;;;;;;;18.55;13.93;;;11.00;99.90;;;;;;5065572;28;20072;-63
2023/04/08 10:30:26;;;;;;;20.13;14.55;;;11.00;99.90;;;;;;5059816;28;20045;-63
2023/04/08 10:32:56;;;;;;;18.42;13.13;;;10.90;99.90;;;;;;5067063;28;20123;-61
2023/04/08 10:35:35;;;;;;;18.33;13.90;;;10.90;99.90;;;;;;5065339;28;20092;-63
2023/04/08 10:38:02;;;;;;;17.40;12.75;;;11.00;99.90;;;;;;5067093;28;20542;-63
2023/04/08 10:40:28;;;;;;;17.05;12.93;;;11.10;99.90;;;;;;5066916;28;20033;-63
2023/04/08 10:42:57;;;;;;;19.27;13.55;;;11.30;99.90;;;;;;5069430;28;20055;-63
2023/04/08 10:45:23;;;;;;;17.92;13.50;;;11.40;99.90;;;;;;5065566;28;20063;-63
2023/04/08 10:47:49;;;;;;;18.75;13.63;;;11.40;99.90;;;;;;5072226;28;20045;-63
2023/04/08 10:50:17;;;;;;;17.15;13.07;;;11.50;99.90;;;;;;5067879;28;20044;-63
2023/04/08 10:52:50;;;;;;;17.65;13.80;;;11.60;99.90;;;;;;5063801;28;20136;-63
2023/04/08 10:55:24;;;;;;;17.42;12.48;;;11.70;99.90;;;;;;5055980;28;20424;-63
2023/04/08 10:57:50;;;;;;;17.05;11.93;;;11.70;99.90;;;;;;5065891;28;20045;-64
2023/04/08 11:00:37;;;;;;;15.30;11.95;;;11.60;99.90;;;;;;5058771;28;20052;-63
2023/04/08 11:03:07;;;;;;;18.30;13.88;;;11.60;99.90;;;;;;5072964;28;20353;-63
2023/04/08 11:05:35;;;;;;;16.85;13.20;;;11.70;99.90;;;;;;5068896;28;20048;-63
2023/04/08 11:08:01;;;;;;;16.55;12.30;;;11.60;99.90;;;;;;5053155;28;20122;-64
2023/04/08 11:10:27;;;;;;;16.80;12.70;;;11.70;99.90;;;;;;5070922;28;20503;-64
2023/04/08 11:12:57;;;;;;;16.65;12.50;;;11.60;99.90;;;;;;5063460;28;20040;-64
2023/04/08 11:15:27;;;;;;;15.70;12.20;;;11.70;99.90;;;;;;5064209;28;20090;-61
2023/04/08 11:17:53;;;;;;;15.15;11.27;;;11.70;99.90;;;;;;5067584;28;20127;-62
2023/04/08 11:20:19;;;;;;;15.15;11.13;;;11.80;99.90;;;;;;5071007;28;20439;-61
2023/04/08 11:22:46;;;;;;;16.77;12.18;;;11.70;99.90;;;;;;5070426;28;20127;-62
2023/04/08 11:25:12;;;;;;;15.25;11.77;;;11.70;99.90;;;;;;5072091;28;20036;-62
2023/04/08 11:27:38;;;;;;;16.48;12.48;;;11.70;99.90;;;;;;5060596;28;20505;-62
2023/04/08 11:30:05;;;;;;;17.38;13.30;;;11.60;99.90;;;;;;5052311;28;20036;-62
2023/04/08 11:32:31;;;;;;;17.38;12.52;;;11.60;99.90;;;;;;5056976;28;20045;-62
2023/04/08 11:35:02;;;;;;;17.30;13.68;;;11.70;99.90;;;;;;5066439;28;20117;-62
2023/04/08 11:37:40;;;;;;;18.58;13.25;;;11.70;99.90;;;;;;5062496;28;20104;-63
2023/04/08 11:40:11;;;;;;;18.98;13.85;;;11.90;99.90;;;;;;5058603;28;20127;-62
2023/04/08 11:42:37;;;;;;;19.00;13.57;;;12.00;99.90;;;;;;5058057;28;20210;-62
2023/04/08 11:45:11;;;;;;;17.38;14.07;;;12.10;99.90;;;;;;5067316;28;20072;-63
2023/04/08 11:47:37;;;;;;;18.23;13.02;;;12.30;99.90;;;;;;5067473;28;20641;-63
2023/04/08 11:50:02;;;;;;;21.13;13.80;;;12.40;99.90;;;;;;5060837;28;20115;-62
2023/04/08 11:52:44;;;;;;;20.23;13.73;;;12.50;99.90;;;;;;5065144;28;20048;-63
2023/04/08 11:55:27;;;;;;;19.27;14.00;;;12.50;99.90;;;;;;5070588;28;20044;-62
2023/04/08 11:57:55;;;;;;;17.23;13.00;;;12.60;99.90;;;;;;5068060;28;20104;-62
2023/04/08 12:00:21;;;;;;;19.30;14.07;;;12.70;99.90;;;;;;5067681;28;20181;-62
2023/04/08 12:02:49;;;;;;;17.23;13.82;;;12.80;99.90;;;;;;5068771;28;20228;-62
2023/04/08 12:05:16;;;;;;;19.90;15.18;;;12.90;99.90;;;;;;5068029;28;20040;-62
2023/04/08 12:07:42;;;;;;;18.90;15.18;;;12.80;99.90;;;;;;5068640;28;20041;-63
2023/04/08 12:10:11;;;;;;;21.73;14.85;;;12.90;99.90;;;;;;5067955;28;20058;-61
2023/04/08 12:12:38;;;;;;;19.45;14.02;;;13.00;99.90;;;;;;5069927;28;20098;-62
2023/04/08 12:15:04;;;;;;;18.80;14.32;;;13.10;99.90;;;;;;5059951;28;20481;-62
2023/04/08 12:17:30;;;;;;;16.95;13.40;;;13.10;99.90;;;;;;5066661;28;20093;-62
2023/04/08 12:19:55;;;;;;;16.50;13.20;;;13.30;99.90;;;;;;5070545;28;20617;-62
2023/04/08 12:22:22;;;;;;;16.33;12.82;;;13.40;99.90;;;;;;5063225;28;20088;-63
2023/04/08 12:24:47;;;;;;;17.23;13.10;;;13.40;99.90;;;;;;5068020;28;20036;-63
2023/04/08 12:27:13;;;;;;;17.33;12.93;;;13.70;99.90;;;;;;5064194;28;20113;-62
2023/04/08 12:29:38;;;;;;;16.95;12.70;;;13.90;99.90;;;;;;5050141;28;20059;-63
2023/04/08 12:32:04;;;;;;;16.52;13.30;;;13.90;99.90;;;;;;5061255;28;20037;-63
2023/04/08 12:34:31;;;;;;;15.13;12.45;;;13.90;99.90;;;;;;5069507;28;20079;-63
2023/04/08 12:36:57;;;;;;;15.02;12.13;;;13.90;99.90;;;;;;5062051;28;20065;-62
2023/04/08 12:39:23;;;;;;;15.77;12.25;;;13.90;99.90;;;;;;5057465;28;20127;-62